ADDS METAR Data INFO
IDs: Format: Raw Decoded Include TAF

Data at: 0919 UTC 25 Feb 2018

KCXO 250853Z AUTO 09009KT 10SM OVC034 16/14 A2994 RMK AO2 LTG DSNT E-SW RAB0759E19 PRESFR SLP134 P0000 60040 T01560139 58009
KCXO 250823Z AUTO 00000KT 10SM VCTS BKN040 OVC055 16/14 A2996 RMK AO2 LTG DSNT S AND SW RAB0759E19 P0000 T01610144
KCXO 250753Z AUTO 03004KT 10SM SCT033 BKN048 OVC060 16/15 A2997 RMK AO2 LTG DSNT E RAE47 TSB12E52 SLP146 P0019 T01560150
KCXO 250745Z AUTO 06004KT 10SM -TSRA FEW017 BKN033 BKN060 16/14 A2998 RMK AO2 LTG DSNT E TSB12 P0019 T01560144
KCXO 250736Z AUTO 32008G17KT 2SM +TSRA BR SCT019 OVC031 16/15 A2999 RMK AO2 LTG DSNT E TSB12 P0019 T01560150
KCXO 250732Z AUTO VRB06KT 1 3/4SM +TSRA BR BKN019 BKN024 OVC031 16/16 A2994 RMK AO2 TSB12 PRESFR P0017 T01560156
KCXO 250718Z AUTO 31004KT 10SM -TSRA BKN019 BKN024 OVC085 17/16 A2999 RMK AO2 LTG DSNT E TSB12 PRESRR P0002 T01670156
KCXO 250653Z AUTO 03007KT 360V060 10SM -RA SCT012 BKN023 OVC080 17/17 A2996 RMK AO2 LTG DSNT E AND W RAB0558 TSB15E30 SLP143 P0021 T01720167
KCXO 250646Z AUTO 34009KT 8SM -RA BKN012 BKN020 OVC049 17/17 A2998 RMK AO2 LTG DSNT E AND W RAB0558 TSB15E30 P0021 T01720172
KCXO 250638Z AUTO 36006KT 3SM RA BR BKN009 BKN020 OVC050 18/18 A2998 RMK AO2 LTG DSNT W RAB0558 TSB15E30 P0021 T01830183
KCXO 250636Z AUTO 34006KT 2SM +RA BR BKN009 BKN014 OVC050 18/18 A2998 RMK AO2 LTG DSNT W RAB0558 TSB15E30 P0021 T01830183
KCXO 250629Z AUTO 33007KT 2SM +TSRA BR SCT009 BKN014 OVC021 19/19 A2997 RMK AO2 LTG DSNT SW RAB0558 TSB15 P0016 T01890189
KCXO 250624Z AUTO 32009KT 3SM +TSRA BR BKN009 BKN014 OVC021 19/19 A2997 RMK AO2 LTG DSNT NE AND SW RAB0558 TSB15 CIG 007V011 P0009 T01890189
KCXO 250615Z AUTO 34007KT 3SM -TSRA BR SCT009 BKN016 OVC022 21/21 A2997 RMK AO2 LTG DSNT NE AND SW RAB0558 TSB15 P0003 T02060206
KCXO 250553Z AUTO 00000KT 5SM BR BKN017 OVC023 21/21 A2996 RMK AO2 RAB0459E10 SLP143 P0001 60004 T02060206 10239 20206 402610206 51026
KCXO 250453Z AUTO 22003KT 10SM SCT021 BKN028 OVC038 22/22 A2996 RMK AO2 LTG DSNT SE AND S RAE26 SLP143 P0002 T02170217
KCXO 250442Z AUTO 22005KT 10SM BKN023 BKN030 OVC038 22/22 A2996 RMK AO2 LTG DSNT S RAE26 P0002 T02220217
KCXO 250433Z AUTO 24004KT 9SM SCT023 BKN030 OVC038 22/22 A2996 RMK AO2 RAE26 PRESRR P0002 T02220217
KCXO 250353Z AUTO 24005KT 7SM -RA BKN021 BKN034 22/21 A2995 RMK AO2 RAE09B44 SLP138 P0001 T02220211
KCXO 250322Z AUTO 28006KT 10SM SCT018 BKN023 BKN029 23/21 A2994 RMK AO2 RAE09 P0000 T02280211
KCXO 250300Z AUTO 14011KT 10SM -RA FEW021 SCT035 BKN120 23/21 A2989 RMK AO2 P0000 T02280211
KCXO 250253Z AUTO 14013KT 10SM -RA BKN021 BKN034 OVC120 23/21 A2988 RMK AO2 RAB53 PRESFR SLP117 P0000 60000 T02280211 58002
KCXO 250226Z 23003KT 10SM BKN021 BKN025 OVC032 23/21 A2993 RMK AO2 T02330211
KCXO 250153Z 19007KT 10SM FEW021 BKN031 BKN045 23/21 A2991 RMK AO2 RAB28E38 SLP124 P0000 T02330206
KCXO 250148Z 18008KT 10SM FEW019 BKN031 OVC047 23/21 A2990 RMK AO2 RAB28E38 P0000
KCXO 250136Z 23005KT 10SM -RA BKN021 BKN028 OVC038 23/21 A2991 RMK AO2 RAB28 P0000 T02330206
KCXO 250102Z 21010KT 10SM SCT025 BKN030 OVC037 24/21 A2989 RMK AO2 T02390206
KCXO 250053Z 21010KT 10SM BKN028 OVC037 24/20 A2989 RMK AO2 SLP118 T02390200
KCXO 250033Z 21009KT 10SM BKN028 OVC037 24/20 A2988 RMK AO2 T02390200
KCXO 242353Z 19010KT 10SM SCT035 BKN047 BKN065 24/20 A2987 RMK AO2 SLP111 60000 T02390200 10261 20239 55000
KCXO 242253Z 19010G19KT 10SM FEW048 SCT065 SCT120 24/19 A2985 RMK AO2 SLP105 T02440194
KCXO 242153Z 20011G21KT 10SM FEW049 SCT060 BKN080 25/19 A2986 RMK AO2 RAB03E14 SLP107 P0000 T02500189
KCXO 242053Z 19015G25KT 10SM SCT065 OVC090 26/18 A2987 RMK AO2 SLP111 T02560183 56020
KCXO 241953Z 20016G23KT 10SM FEW044 BKN060 OVC110 26/18 A2988 RMK AO2 SLP115 T02610183
KCXO 241853Z 18016G23KT 10SM SCT035 BKN042 BKN049 26/19 A2990 RMK AO2 LTG DSNT N SLP121 T02560194
KCXO 241753Z 19013G23KT 10SM SCT029 BKN036 OVC045 25/20 A2993 RMK AO2 PK WND 18026/1719 SLP131 60001 T02500200 10250 20211 58012
KCXO 241653Z 17017G27KT 10SM SCT018 BKN024 BKN038 24/21 A2993 RMK AO2 PK WND 17027/1648 SLP133 T02390206
KCXO 241553Z 17012KT 10SM SCT018 BKN024 BKN038 23/21 A2996 RMK AO2 SLP143 T02330211
KCXO 241453Z 17012KT 10SM FEW015 BKN024 BKN029 23/22 A2996 RMK AO2 RAE07 SLP143 P0000 60001 T02280217 56003
KCXO 241443Z 16012KT 10SM FEW015 SCT026 BKN034 22/22 A2996 RMK AO2 RAE07 P0000 T02220217
KCXO 241353Z 16006KT 6SM -RA BR SCT017 BKN024 OVC038 21/21 A2997 RMK AO2 RAB41 SLP145 P0001 T02110211
KCXO 241333Z 15007KT 9SM SCT023 BKN028 OVC046 21/21 A2996 RMK AO2 T02110211
KCXO 241253Z 16006KT 9SM FEW018 BKN046 OVC065 21/21 A2997 RMK AO2 SLP146 T02110211
KCXO 241241Z 17007KT 9SM FEW015 BKN045 OVC065 21/21 A2997 RMK AO2 T02110211
KCXO 241228Z 17007KT 10SM SCT017 BKN023 OVC065 22/21 A2997 RMK AO2 T02170211
KCXO 241201Z 16008KT 10SM SCT016 BKN042 BKN065 21/21 A2996 RMK AO2 T02110211
KCXO 241153Z 16007KT 9SM SCT016 BKN023 OVC042 22/22 A2996 RMK AO2 RAE35 SLP144 P0001 60003 70003 T02170217 10217 20206 55008
KCXO 241053Z AUTO 17007KT 5SM -RA BR BKN016 BKN027 OVC032 22/22 A2995 RMK AO2 RAE00B43 SLP140 P0001 T02170217
KCXO 240953Z AUTO 16008KT 8SM -RA SCT017 BKN022 OVC032 22/22 A2996 RMK AO2 RAB32 SLP142 P0001 T02170217
KCXO 240926Z AUTO 15006KT 7SM SCT014 BKN028 OVC037 21/21 A2996 RMK AO2 T02060206
KCXO 240853Z AUTO 18004KT 8SM SCT010 BKN013 OVC037 21/21 A2999 RMK AO2 SLP152 T02110211 56007
KCXO 240830Z AUTO 17006KT 9SM BKN009 BKN028 OVC041 21/21 A2999 RMK AO2 T02110211
KCXO 240822Z AUTO 17007KT 8SM FEW009 SCT014 OVC041 21/21 A2999 RMK AO2 T02110211
KCXO 240801Z AUTO 17006KT 7SM SCT008 BKN015 OVC021 21/21 A2999 RMK AO2 T02110211
KCXO 240753Z AUTO 17007KT 7SM BKN008 OVC017 21/21 A2999 RMK AO2 SLP154 T02110211
KCXO 240746Z AUTO 16007KT 7SM BKN008 OVC015 21/21 A2999 RMK AO2 CIG 006V011 T02110211
KCXO 240731Z AUTO 15008KT 7SM FEW008 BKN015 OVC048 21/21 A2999 RMK AO2 T02110211
KCXO 240718Z AUTO 15008KT 7SM SCT010 BKN019 OVC048 21/21 A3000 RMK AO2 T02110211
KCXO 240711Z AUTO 15006KT 7SM FEW008 BKN012 OVC048 21/21 A3000 RMK AO2 T02110211
KCXO 240703Z AUTO 16007KT 8SM BKN008 BKN014 OVC020 21/21 A3001 RMK AO2 T02110211
KCXO 240653Z AUTO 16006KT 8SM OVC010 21/21 A3001 RMK AO2 CIG 007V012 SLP159 T02110211
KCXO 240553Z AUTO 15006KT 9SM BKN010 OVC015 22/21 A3003 RMK AO2 CIG 008V012 SLP164 T02170211 10239 20206 402720111 56007
KCXO 240530Z AUTO 15008KT 9SM BKN009 BKN013 OVC019 21/21 A3003 RMK AO2 T02110211
KCXO 240453Z AUTO 15006KT 9SM BKN011 BKN021 OVC031 21/21 A3004 RMK AO2 SLP169 T02110211
KCXO 240353Z AUTO 14008KT 9SM OVC011 21/21 A3005 RMK AO2 SLP173 T02110206
KCXO 240253Z 14010KT 10SM BKN010 OVC022 21/21 A3006 RMK AO2 SLP175 T02060206 53004
KCXO 240226Z 15007KT 10SM BKN012 OVC024 21/21 A3005 RMK AO2 T02110206
KCXO 240214Z 14010KT 10SM SCT012 BKN024 21/21 A3005 RMK AO2 T02110206
KCXO 240153Z 14010KT 10SM CLR 21/21 A3004 RMK AO2 SLP172 T02110206
KCXO 240053Z 13009KT 10SM CLR 22/20 A3004 RMK AO2 SLP171 T02220200
KCXO 240007Z 15013KT 10SM FEW027 23/19 A3005 RMK AO2 T02280194
KCXO 232353Z 14010G17KT 10SM BKN028 24/19 A3004 RMK AO2 SLP172 T02390194 10272 20239 56003
KCXO 232333Z 14012KT 10SM BKN029 24/19 A3005 RMK AO2 T02440194
KCXO 232253Z 16015KT 10SM CLR 25/19 A3005 RMK AO2 SLP175 T02500189
KCXO 232153Z 16012G21KT 10SM SCT038 27/19 A3005 RMK AO2 SLP175 T02670189